sensor_id;sensor_type;location;lat;lon;timestamp;pressure;altitude;pressure_sealevel;temperature;humidity
61345;BME280;47216;42.656;23.232;2024-01-30T00:00:26;95749.69;;;2.05;54.61
61345;BME280;47216;42.656;23.232;2024-01-30T00:03:16;95751.75;;;1.83;54.56
61345;BME280;47216;42.656;23.232;2024-01-30T00:05:51;95757.34;;;1.79;54.95
61345;BME280;47216;42.656;23.232;2024-01-30T00:08:28;95758.13;;;1.79;55.19
61345;BME280;47216;42.656;23.232;2024-01-30T00:11:20;95752.19;;;1.79;55.14
61345;BME280;47216;42.656;23.232;2024-01-30T00:14:29;95754.31;;;1.83;55.13
61345;BME280;47216;42.656;23.232;2024-01-30T00:17:17;95760.28;;;1.84;55.30
61345;BME280;47216;42.656;23.232;2024-01-30T00:20:09;95742.91;;;1.68;54.60
61345;BME280;47216;42.656;23.232;2024-01-30T00:22:54;95757.91;;;1.73;55.23
61345;BME280;47216;42.656;23.232;2024-01-30T00:25:44;95759.38;;;1.75;55.34
61345;BME280;47216;42.656;23.232;2024-01-30T00:28:32;95756.88;;;1.65;55.33
61345;BME280;47216;42.656;23.232;2024-01-30T00:31:31;95752.41;;;1.67;55.42
61345;BME280;47216;42.656;23.232;2024-01-30T00:34:27;95749.53;;;1.71;55.66
61345;BME280;47216;42.656;23.232;2024-01-30T00:37:15;95760.78;;;1.70;55.52
61345;BME280;47216;42.656;23.232;2024-01-30T00:40:23;95753.44;;;1.75;55.36
61345;BME280;47216;42.656;23.232;2024-01-30T00:43:21;95749.97;;;1.84;55.29
61345;BME280;47216;42.656;23.232;2024-01-30T00:46:09;95747.28;;;1.85;55.43
61345;BME280;47216;42.656;23.232;2024-01-30T00:48:50;95748.88;;;1.86;55.13
61345;BME280;47216;42.656;23.232;2024-01-30T00:51:26;95753.75;;;1.89;55.40
61345;BME280;47216;42.656;23.232;2024-01-30T00:54:24;95751.25;;;1.98;54.84
61345;BME280;47216;42.656;23.232;2024-01-30T00:57:18;95746.22;;;1.96;55.08
61345;BME280;47216;42.656;23.232;2024-01-30T01:00:00;95750.56;;;1.96;54.61
61345;BME280;47216;42.656;23.232;2024-01-30T01:05:47;95749.88;;;2.03;54.87
61345;BME280;47216;42.656;23.232;2024-01-30T01:08:20;95749.34;;;2.00;55.33
61345;BME280;47216;42.656;23.232;2024-01-30T01:10:54;95747.34;;;1.94;55.03
61345;BME280;47216;42.656;23.232;2024-01-30T01:13:42;95741.69;;;1.90;55.14
61345;BME280;47216;42.656;23.232;2024-01-30T01:16:25;95745.66;;;1.84;55.13
61345;BME280;47216;42.656;23.232;2024-01-30T01:19:00;95739.69;;;1.84;55.10
61345;BME280;47216;42.656;23.232;2024-01-30T01:22:12;95734.56;;;1.84;55.08
61345;BME280;47216;42.656;23.232;2024-01-30T01:24:52;95736.75;;;1.79;55.19
61345;BME280;47216;42.656;23.232;2024-01-30T01:27:57;95740.28;;;1.78;55.57
61345;BME280;47216;42.656;23.232;2024-01-30T01:30:43;95736.91;;;1.77;55.19
61345;BME280;47216;42.656;23.232;2024-01-30T01:33:46;95749.91;;;1.76;55.08
61345;BME280;47216;42.656;23.232;2024-01-30T01:36:21;95738.75;;;1.67;55.18
61345;BME280;47216;42.656;23.232;2024-01-30T01:39:30;95738.56;;;1.68;54.96
61345;BME280;47216;42.656;23.232;2024-01-30T01:42:21;95742.31;;;1.56;55.21
61345;BME280;47216;42.656;23.232;2024-01-30T01:45:11;95745.94;;;1.36;55.63
61345;BME280;47216;42.656;23.232;2024-01-30T01:48:11;95744.81;;;1.48;55.21
61345;BME280;47216;42.656;23.232;2024-01-30T01:50:51;95740.22;;;1.42;55.53
61345;BME280;47216;42.656;23.232;2024-01-30T01:53:38;95737.03;;;1.30;55.81
61345;BME280;47216;42.656;23.232;2024-01-30T01:56:43;95737.28;;;1.37;55.83
61345;BME280;47216;42.656;23.232;2024-01-30T01:59:31;95750.81;;;1.39;56.41
61345;BME280;47216;42.656;23.232;2024-01-30T02:02:32;95740.53;;;1.39;56.08
61345;BME280;47216;42.656;23.232;2024-01-30T02:05:38;95756.59;;;1.41;56.32
61345;BME280;47216;42.656;23.232;2024-01-30T02:08:38;95747.28;;;1.40;56.21
61345;BME280;47216;42.656;23.232;2024-01-30T02:11:11;95757.00;;;1.36;55.84
61345;BME280;47216;42.656;23.232;2024-01-30T02:14:13;95768.13;;;1.37;55.78
61345;BME280;47216;42.656;23.232;2024-01-30T02:17:11;95763.59;;;1.49;55.79
61345;BME280;47216;42.656;23.232;2024-01-30T02:20:04;95756.16;;;1.45;55.99
61345;BME280;47216;42.656;23.232;2024-01-30T02:22:57;95759.69;;;1.44;55.85
61345;BME280;47216;42.656;23.232;2024-01-30T02:25:52;95758.97;;;1.52;56.27
61345;BME280;47216;42.656;23.232;2024-01-30T02:28:58;95747.66;;;1.45;55.99
61345;BME280;47216;42.656;23.232;2024-01-30T02:31:47;95752.72;;;1.37;56.24
61345;BME280;47216;42.656;23.232;2024-01-30T02:34:42;95745.59;;;1.49;56.04
61345;BME280;47216;42.656;23.232;2024-01-30T02:37:28;95742.44;;;1.55;55.86
61345;BME280;47216;42.656;23.232;2024-01-30T02:40:19;95744.88;;;1.56;55.27
61345;BME280;47216;42.656;23.232;2024-01-30T02:43:09;95741.94;;;1.51;55.55
61345;BME280;47216;42.656;23.232;2024-01-30T02:46:12;95740.47;;;1.49;55.47
61345;BME280;47216;42.656;23.232;2024-01-30T02:49:12;95748.31;;;1.47;55.29
61345;BME280;47216;42.656;23.232;2024-01-30T02:51:55;95748.19;;;1.49;55.42
61345;BME280;47216;42.656;23.232;2024-01-30T02:54:38;95747.94;;;1.42;55.80
61345;BME280;47216;42.656;23.232;2024-01-30T02:57:25;95743.75;;;1.41;55.04
61345;BME280;47216;42.656;23.232;2024-01-30T03:00:11;95748.94;;;1.31;55.02
61345;BME280;47216;42.656;23.232;2024-01-30T03:03:02;95748.97;;;1.21;55.29
61345;BME280;47216;42.656;23.232;2024-01-30T03:05:41;95745.22;;;1.16;55.50
61345;BME280;47216;42.656;23.232;2024-01-30T03:08:19;95741.41;;;1.20;55.66
61345;BME280;47216;42.656;23.232;2024-01-30T03:11:07;95737.66;;;1.14;55.88
61345;BME280;47216;42.656;23.232;2024-01-30T03:14:12;95740.53;;;1.11;56.10
61345;BME280;47216;42.656;23.232;2024-01-30T03:16:53;95736.69;;;1.15;55.74
61345;BME280;47216;42.656;23.232;2024-01-30T03:19:44;95737.94;;;1.11;55.48
61345;BME280;47216;42.656;23.232;2024-01-30T03:22:27;95736.66;;;0.97;56.02
61345;BME280;47216;42.656;23.232;2024-01-30T03:25:10;95735.94;;;1.05;55.30
61345;BME280;47216;42.656;23.232;2024-01-30T03:28:13;95741.84;;;1.15;55.31
61345;BME280;47216;42.656;23.232;2024-01-30T03:31:03;95732.81;;;1.11;55.44
61345;BME280;47216;42.656;23.232;2024-01-30T03:34:01;95734.47;;;1.02;55.34
61345;BME280;47216;42.656;23.232;2024-01-30T03:36:52;95722.38;;;1.13;55.14
61345;BME280;47216;42.656;23.232;2024-01-30T03:39:44;95725.28;;;1.00;55.59
61345;BME280;47216;42.656;23.232;2024-01-30T03:42:28;95722.03;;;0.98;55.61
61345;BME280;47216;42.656;23.232;2024-01-30T03:45:11;95727.97;;;0.98;54.87
61345;BME280;47216;42.656;23.232;2024-01-30T03:48:19;95711.28;;;0.84;55.28
61345;BME280;47216;42.656;23.232;2024-01-30T03:50:59;95717.19;;;0.95;54.44
61345;BME280;47216;42.656;23.232;2024-01-30T03:53:53;95713.84;;;0.84;54.62
61345;BME280;47216;42.656;23.232;2024-01-30T03:56:51;95726.44;;;0.78;54.92
61345;BME280;47216;42.656;23.232;2024-01-30T03:59:48;95722.38;;;0.75;54.84
61345;BME280;47216;42.656;23.232;2024-01-30T04:02:48;95716.88;;;0.70;54.96
61345;BME280;47216;42.656;23.232;2024-01-30T04:05:52;95718.88;;;0.76;54.94
61345;BME280;47216;42.656;23.232;2024-01-30T04:08:25;95721.03;;;0.71;54.88
61345;BME280;47216;42.656;23.232;2024-01-30T04:11:11;95719.09;;;0.83;55.13
61345;BME280;47216;42.656;23.232;2024-01-30T04:14:08;95721.28;;;0.78;54.93
61345;BME280;47216;42.656;23.232;2024-01-30T04:16:51;95725.63;;;0.77;54.88
61345;BME280;47216;42.656;23.232;2024-01-30T04:19:27;95718.38;;;0.63;54.69
61345;BME280;47216;42.656;23.232;2024-01-30T04:22:15;95722.53;;;0.74;54.61
61345;BME280;47216;42.656;23.232;2024-01-30T04:24:57;95710.50;;;0.74;54.29
61345;BME280;47216;42.656;23.232;2024-01-30T04:27:36;95722.09;;;0.78;54.32
61345;BME280;47216;42.656;23.232;2024-01-30T04:30:26;95721.72;;;0.73;54.72
61345;BME280;47216;42.656;23.232;2024-01-30T04:33:08;95734.28;;;0.76;54.54
61345;BME280;47216;42.656;23.232;2024-01-30T04:35:53;95731.81;;;0.84;54.46
61345;BME280;47216;42.656;23.232;2024-01-30T04:38:44;95736.66;;;0.88;54.47
61345;BME280;47216;42.656;23.232;2024-01-30T04:41:28;95735.81;;;0.97;54.73
61345;BME280;47216;42.656;23.232;2024-01-30T04:44:20;95727.56;;;1.03;54.08
61345;BME280;47216;42.656;23.232;2024-01-30T04:47:05;95722.97;;;1.07;54.17
61345;BME280;47216;42.656;23.232;2024-01-30T04:50:09;95736.31;;;1.10;53.82
61345;BME280;47216;42.656;23.232;2024-01-30T04:52:52;95733.78;;;1.00;53.60
61345;BME280;47216;42.656;23.232;2024-01-30T04:55:46;95752.19;;;0.96;53.67
61345;BME280;47216;42.656;23.232;2024-01-30T04:58:24;95750.59;;;0.95;53.90
61345;BME280;47216;42.656;23.232;2024-01-30T05:01:04;95753.72;;;0.89;53.89
61345;BME280;47216;42.656;23.232;2024-01-30T05:04:00;95754.47;;;0.99;53.83
61345;BME280;47216;42.656;23.232;2024-01-30T05:06:40;95756.09;;;1.00;53.95
61345;BME280;47216;42.656;23.232;2024-01-30T05:09:24;95750.25;;;1.08;53.63
61345;BME280;47216;42.656;23.232;2024-01-30T05:12:24;95756.91;;;1.00;53.81
61345;BME280;47216;42.656;23.232;2024-01-30T05:15:06;95761.16;;;0.82;53.89
61345;BME280;47216;42.656;23.232;2024-01-30T05:18:02;95761.72;;;0.66;54.33
61345;BME280;47216;42.656;23.232;2024-01-30T05:20:52;95762.41;;;0.68;54.71
61345;BME280;47216;42.656;23.232;2024-01-30T05:23:36;95772.00;;;0.66;54.87
61345;BME280;47216;42.656;23.232;2024-01-30T05:29:38;95769.56;;;0.74;55.06
61345;BME280;47216;42.656;23.232;2024-01-30T05:32:28;95765.09;;;0.76;54.68
61345;BME280;47216;42.656;23.232;2024-01-30T05:35:06;95764.59;;;0.63;55.72
61345;BME280;47216;42.656;23.232;2024-01-30T05:37:45;95763.09;;;0.60;55.39
61345;BME280;47216;42.656;23.232;2024-01-30T05:40:14;95772.53;;;0.60;55.67
61345;BME280;47216;42.656;23.232;2024-01-30T05:42:45;95766.75;;;0.58;55.31
61345;BME280;47216;42.656;23.232;2024-01-30T05:45:17;95762.00;;;0.63;55.24
61345;BME280;47216;42.656;23.232;2024-01-30T05:47:50;95750.78;;;0.64;55.09
61345;BME280;47216;42.656;23.232;2024-01-30T05:50:27;95759.56;;;0.61;55.37
61345;BME280;47216;42.656;23.232;2024-01-30T05:53:08;95765.94;;;0.67;55.29
61345;BME280;47216;42.656;23.232;2024-01-30T05:55:43;95764.59;;;0.63;55.47
61345;BME280;47216;42.656;23.232;2024-01-30T05:58:24;95756.72;;;0.74;55.18
61345;BME280;47216;42.656;23.232;2024-01-30T06:01:08;95759.41;;;0.73;54.98
61345;BME280;47216;42.656;23.232;2024-01-30T06:03:48;95758.88;;;0.79;54.33
61345;BME280;47216;42.656;23.232;2024-01-30T06:06:30;95752.06;;;0.88;54.16
61345;BME280;47216;42.656;23.232;2024-01-30T06:09:01;95761.41;;;0.89;54.01
61345;BME280;47216;42.656;23.232;2024-01-30T06:11:31;95767.25;;;0.81;54.22
61345;BME280;47216;42.656;23.232;2024-01-30T06:14:08;95754.84;;;0.76;54.31
61345;BME280;47216;42.656;23.232;2024-01-30T06:16:49;95760.22;;;0.73;54.25
61345;BME280;47216;42.656;23.232;2024-01-30T06:19:29;95760.44;;;0.90;54.49
61345;BME280;47216;42.656;23.232;2024-01-30T06:22:04;95756.16;;;0.80;53.85
61345;BME280;47216;42.656;23.232;2024-01-30T06:24:41;95760.91;;;0.75;53.89
61345;BME280;47216;42.656;23.232;2024-01-30T06:27:13;95743.50;;;0.59;53.88
61345;BME280;47216;42.656;23.232;2024-01-30T06:29:46;95763.22;;;0.59;53.89
61345;BME280;47216;42.656;23.232;2024-01-30T06:32:28;95772.53;;;0.60;53.84
61345;BME280;47216;42.656;23.232;2024-01-30T06:35:11;95768.75;;;0.64;54.33
61345;BME280;47216;42.656;23.232;2024-01-30T06:37:53;95751.91;;;0.52;54.60
61345;BME280;47216;42.656;23.232;2024-01-30T06:40:26;95767.53;;;0.68;54.55
61345;BME280;47216;42.656;23.232;2024-01-30T06:43:03;95767.53;;;0.68;54.53
61345;BME280;47216;42.656;23.232;2024-01-30T06:45:43;95759.06;;;0.58;54.04
61345;BME280;47216;42.656;23.232;2024-01-30T06:48:44;95762.16;;;0.61;54.10
61345;BME280;47216;42.656;23.232;2024-01-30T06:51:26;95764.28;;;0.66;53.72
61345;BME280;47216;42.656;23.232;2024-01-30T06:54:05;95749.44;;;0.60;53.47
61345;BME280;47216;42.656;23.232;2024-01-30T06:56:41;95771.72;;;0.79;53.81
61345;BME280;47216;42.656;23.232;2024-01-30T06:59:19;95770.78;;;0.70;53.16
61345;BME280;47216;42.656;23.232;2024-01-30T07:01:58;95773.22;;;0.62;53.21
61345;BME280;47216;42.656;23.232;2024-01-30T07:04:43;95774.84;;;0.63;53.35
61345;BME280;47216;42.656;23.232;2024-01-30T07:07:17;95777.56;;;0.52;53.49
61345;BME280;47216;42.656;23.232;2024-01-30T07:09:52;95772.72;;;0.49;53.34
61345;BME280;47216;42.656;23.232;2024-01-30T07:12:28;95765.16;;;0.47;53.49
61345;BME280;47216;42.656;23.232;2024-01-30T07:15:04;95786.75;;;0.54;53.41
61345;BME280;47216;42.656;23.232;2024-01-30T07:17:44;95774.59;;;0.47;53.10
61345;BME280;47216;42.656;23.232;2024-01-30T07:20:29;95774.03;;;0.62;52.95
61345;BME280;47216;42.656;23.232;2024-01-30T07:23:07;95775.66;;;0.63;52.36
61345;BME280;47216;42.656;23.232;2024-01-30T07:25:44;95780.75;;;0.73;52.29
61345;BME280;47216;42.656;23.232;2024-01-30T07:28:25;95786.69;;;0.83;52.47
61345;BME280;47216;42.656;23.232;2024-01-30T07:31:00;95786.03;;;0.81;51.73
61345;BME280;47216;42.656;23.232;2024-01-30T07:33:38;95782.66;;;0.81;51.74
61345;BME280;47216;42.656;23.232;2024-01-30T07:36:27;95782.50;;;0.82;51.60
61345;BME280;47216;42.656;23.232;2024-01-30T07:39:01;95779.41;;;0.79;51.85
61345;BME280;47216;42.656;23.232;2024-01-30T07:41:36;95786.81;;;0.92;51.41
61345;BME280;47216;42.656;23.232;2024-01-30T07:44:10;95772.63;;;0.88;51.43
61345;BME280;47216;42.656;23.232;2024-01-30T07:46:59;95776.91;;;0.97;50.92
61345;BME280;47216;42.656;23.232;2024-01-30T07:49:42;95772.56;;;1.07;50.70
61345;BME280;47216;42.656;23.232;2024-01-30T07:52:22;95769.53;;;1.21;50.62
61345;BME280;47216;42.656;23.232;2024-01-30T07:54:58;95778.72;;;1.24;50.64
61345;BME280;47216;42.656;23.232;2024-01-30T07:57:39;95764.50;;;1.30;50.31
61345;BME280;47216;42.656;23.232;2024-01-30T08:00:25;95773.53;;;1.34;50.27
61345;BME280;47216;42.656;23.232;2024-01-30T08:03:07;95765.75;;;1.25;50.72
61345;BME280;47216;42.656;23.232;2024-01-30T08:05:46;95771.13;;;1.22;50.33
61345;BME280;47216;42.656;23.232;2024-01-30T08:08:29;95769.44;;;1.41;49.86
61345;BME280;47216;42.656;23.232;2024-01-30T08:11:10;95758.88;;;1.44;49.67
61345;BME280;47216;42.656;23.232;2024-01-30T08:13:48;95768.44;;;1.52;49.39
61345;BME280;47216;42.656;23.232;2024-01-30T08:16:21;95764.41;;;1.49;49.60
61345;BME280;47216;42.656;23.232;2024-01-30T08:18:57;95762.97;;;1.64;50.17
61345;BME280;47216;42.656;23.232;2024-01-30T08:21:31;95759.06;;;1.60;48.96
61345;BME280;47216;42.656;23.232;2024-01-30T08:24:13;95769.91;;;1.54;49.47
61345;BME280;47216;42.656;23.232;2024-01-30T08:26:52;95761.06;;;1.66;49.54
61345;BME280;47216;42.656;23.232;2024-01-30T08:29:40;95770.09;;;1.71;49.09
61345;BME280;47216;42.656;23.232;2024-01-30T08:32:17;95768.13;;;1.82;48.86
61345;BME280;47216;42.656;23.232;2024-01-30T08:34:49;95761.91;;;1.85;49.06
61345;BME280;47216;42.656;23.232;2024-01-30T08:37:26;95768.34;;;1.89;49.02
61345;BME280;47216;42.656;23.232;2024-01-30T08:40:10;95773.56;;;1.79;48.52
61345;BME280;47216;42.656;23.232;2024-01-30T08:43:01;95767.50;;;1.80;48.31
61345;BME280;47216;42.656;23.232;2024-01-30T08:45:42;95765.66;;;1.91;49.08
61345;BME280;47216;42.656;23.232;2024-01-30T08:48:20;95757.56;;;1.85;48.99
61345;BME280;47216;42.656;23.232;2024-01-30T08:51:01;95776.03;;;1.99;49.02
61345;BME280;47216;42.656;23.232;2024-01-30T08:53:46;95778.44;;;2.00;48.92
61345;BME280;47216;42.656;23.232;2024-01-30T08:56:25;95768.59;;;1.96;49.05
61345;BME280;47216;42.656;23.232;2024-01-30T08:59:05;95772.06;;;2.04;49.04
61345;BME280;47216;42.656;23.232;2024-01-30T09:01:50;95776.91;;;2.07;48.51
61345;BME280;47216;42.656;23.232;2024-01-30T09:04:27;95782.03;;;2.07;48.72
61345;BME280;47216;42.656;23.232;2024-01-30T09:06:59;95773.91;;;1.94;48.83
61345;BME280;47216;42.656;23.232;2024-01-30T09:09:39;95773.81;;;1.86;49.07
61345;BME280;47216;42.656;23.232;2024-01-30T09:12:21;95774.09;;;1.83;49.50
61345;BME280;47216;42.656;23.232;2024-01-30T09:14:53;95766.44;;;1.91;49.29
61345;BME280;47216;42.656;23.232;2024-01-30T09:17:23;95767.13;;;1.93;50.12
61345;BME280;47216;42.656;23.232;2024-01-30T09:19:54;95768.81;;;2.02;49.05
61345;BME280;47216;42.656;23.232;2024-01-30T09:22:32;95765.50;;;2.10;50.06
61345;BME280;47216;42.656;23.232;2024-01-30T09:25:07;95765.81;;;2.07;49.24
61345;BME280;47216;42.656;23.232;2024-01-30T09:27:42;95758.53;;;2.02;50.15
61345;BME280;47216;42.656;23.232;2024-01-30T09:30:18;95750.44;;;1.97;50.84
61345;BME280;47216;42.656;23.232;2024-01-30T09:32:48;95763.97;;;1.99;50.26
61345;BME280;47216;42.656;23.232;2024-01-30T09:35:25;95769.91;;;2.00;51.58
61345;BME280;47216;42.656;23.232;2024-01-30T09:38:06;95771.91;;;1.88;51.36
61345;BME280;47216;42.656;23.232;2024-01-30T09:40:41;95757.41;;;1.87;51.05
61345;BME280;47216;42.656;23.232;2024-01-30T09:43:23;95762.34;;;1.98;51.40
61345;BME280;47216;42.656;23.232;2024-01-30T09:46:04;95750.75;;;1.94;51.50
61345;BME280;47216;42.656;23.232;2024-01-30T09:48:46;95758.47;;;1.94;51.95
61345;BME280;47216;42.656;23.232;2024-01-30T09:51:34;95746.91;;;1.98;51.50
61345;BME280;47216;42.656;23.232;2024-01-30T09:54:08;95759.53;;;1.92;51.07
61345;BME280;47216;42.656;23.232;2024-01-30T09:56:47;95761.31;;;1.91;51.59
61345;BME280;47216;42.656;23.232;2024-01-30T09:59:29;95762.13;;;2.09;50.88
61345;BME280;47216;42.656;23.232;2024-01-30T10:02:13;95753.38;;;2.02;50.96
61345;BME280;47216;42.656;23.232;2024-01-30T10:04:52;95752.34;;;1.95;51.15
61345;BME280;47216;42.656;23.232;2024-01-30T10:07:49;95763.38;;;2.05;51.33
61345;BME280;47216;42.656;23.232;2024-01-30T10:10:41;95757.41;;;2.05;50.74
61345;BME280;47216;42.656;23.232;2024-01-30T10:13:28;95747.03;;;2.15;50.82
61345;BME280;47216;42.656;23.232;2024-01-30T10:16:10;95746.69;;;2.09;50.20
61345;BME280;47216;42.656;23.232;2024-01-30T10:18:59;95740.22;;;2.23;50.56
61345;BME280;47216;42.656;23.232;2024-01-30T10:21:48;95737.13;;;2.20;51.73
61345;BME280;47216;42.656;23.232;2024-01-30T10:24:26;95742.91;;;2.22;50.26
61345;BME280;47216;42.656;23.232;2024-01-30T10:27:05;95734.78;;;2.08;50.53
61345;BME280;47216;42.656;23.232;2024-01-30T10:29:52;95741.31;;;2.21;50.83
61345;BME280;47216;42.656;23.232;2024-01-30T10:32:51;95739.84;;;2.18;50.81
61345;BME280;47216;42.656;23.232;2024-01-30T10:35:42;95743.22;;;2.19;51.24
61345;BME280;47216;42.656;23.232;2024-01-30T10:38:31;95735.16;;;2.14;51.21
61345;BME280;47216;42.656;23.232;2024-01-30T10:41:28;95736.47;;;2.18;50.90
61345;BME280;47216;42.656;23.232;2024-01-30T10:44:19;95737.19;;;2.28;51.48
61345;BME280;47216;42.656;23.232;2024-01-30T10:47:22;95737.41;;;2.35;50.18
61345;BME280;47216;42.656;23.232;2024-01-30T10:50:12;95740.78;;;2.35;50.52
61345;BME280;47216;42.656;23.232;2024-01-30T10:52:48;95734.97;;;2.33;50.78
61345;BME280;47216;42.656;23.232;2024-01-30T10:55:30;95726.75;;;2.29;49.74
61345;BME280;47216;42.656;23.232;2024-01-30T10:58:28;95727.00;;;2.44;49.55
61345;BME280;47216;42.656;23.232;2024-01-30T11:01:26;95719.72;;;2.58;50.39
61345;BME280;47216;42.656;23.232;2024-01-30T11:04:09;95716.91;;;2.77;53.10
61345;BME280;47216;42.656;23.232;2024-01-30T11:06:42;95711.88;;;2.93;50.20
61345;BME280;47216;42.656;23.232;2024-01-30T11:09:11;95709.00;;;3.05;52.74
61345;BME280;47216;42.656;23.232;2024-01-30T11:11:52;95701.19;;;3.23;50.44
61345;BME280;47216;42.656;23.232;2024-01-30T11:14:25;95700.38;;;3.22;49.09
61345;BME280;47216;42.656;23.232;2024-01-30T11:16:53;95700.19;;;3.15;49.29
61345;BME280;47216;42.656;23.232;2024-01-30T11:19:24;95695.88;;;3.24;49.02
61345;BME280;47216;42.656;23.232;2024-01-30T11:21:54;95692.31;;;3.17;48.20
61345;BME280;47216;42.656;23.232;2024-01-30T11:24:23;95692.63;;;3.14;48.73
61345;BME280;47216;42.656;23.232;2024-01-30T11:26:55;95689.41;;;3.12;48.41
61345;BME280;47216;42.656;23.232;2024-01-30T11:29:24;95697.78;;;3.14;48.03
61345;BME280;47216;42.656;23.232;2024-01-30T11:31:52;95695.78;;;3.00;48.88
61345;BME280;47216;42.656;23.232;2024-01-30T11:34:20;95692.22;;;2.92;48.63
61345;BME280;47216;42.656;23.232;2024-01-30T11:36:51;95696.72;;;2.90;48.73
61345;BME280;47216;42.656;23.232;2024-01-30T11:39:22;95694.75;;;2.84;49.33
61345;BME280;47216;42.656;23.232;2024-01-30T11:41:51;95695.31;;;2.70;49.62
61345;BME280;47216;42.656;23.232;2024-01-30T11:44:19;95704.22;;;2.76;50.16
61345;BME280;47216;42.656;23.232;2024-01-30T11:46:47;95704.25;;;2.58;50.23
61345;BME280;47216;42.656;23.232;2024-01-30T11:49:22;95693.84;;;2.67;49.88
61345;BME280;47216;42.656;23.232;2024-01-30T11:52:09;95699.97;;;2.66;49.32
61345;BME280;47216;42.656;23.232;2024-01-30T11:54:58;95701.47;;;2.77;49.77
61345;BME280;47216;42.656;23.232;2024-01-30T11:57:44;95688.44;;;2.79;49.75
61345;BME280;47216;42.656;23.232;2024-01-30T12:00:26;95696.31;;;2.77;50.30
61345;BME280;47216;42.656;23.232;2024-01-30T12:03:12;95689.56;;;2.76;50.42
61345;BME280;47216;42.656;23.232;2024-01-30T12:05:43;95672.66;;;2.82;49.41
61345;BME280;47216;42.656;23.232;2024-01-30T12:08:16;95676.41;;;2.87;48.66
61345;BME280;47216;42.656;23.232;2024-01-30T12:10:57;95670.47;;;2.87;49.04
61345;BME280;47216;42.656;23.232;2024-01-30T12:13:35;95652.88;;;2.82;50.03
61345;BME280;47216;42.656;23.232;2024-01-30T12:16:12;95658.06;;;2.90;49.64
61345;BME280;47216;42.656;23.232;2024-01-30T12:18:59;95651.22;;;3.07;49.20
61345;BME280;47216;42.656;23.232;2024-01-30T12:21:26;95650.44;;;3.23;48.61
61345;BME280;47216;42.656;23.232;2024-01-30T12:23:54;95659.81;;;3.32;48.87
61345;BME280;47216;42.656;23.232;2024-01-30T12:26:23;95655.78;;;3.30;48.72
61345;BME280;47216;42.656;23.232;2024-01-30T12:28:50;95648.50;;;3.25;48.97
61345;BME280;47216;42.656;23.232;2024-01-30T12:31:24;95651.13;;;3.42;47.80
61345;BME280;47216;42.656;23.232;2024-01-30T12:34:09;95638.56;;;3.39;48.58
61345;BME280;47216;42.656;23.232;2024-01-30T12:36:43;95644.53;;;3.39;48.62
61345;BME280;47216;42.656;23.232;2024-01-30T12:39:11;95641.78;;;3.49;48.89
61345;BME280;47216;42.656;23.232;2024-01-30T12:41:41;95631.19;;;3.60;48.90
61345;BME280;47216;42.656;23.232;2024-01-30T12:44:08;95640.53;;;3.53;47.95
61345;BME280;47216;42.656;23.232;2024-01-30T12:46:35;95626.03;;;3.52;47.89
61345;BME280;47216;42.656;23.232;2024-01-30T12:49:11;95634.25;;;3.64;48.71
61345;BME280;47216;42.656;23.232;2024-01-30T12:51:50;95637.00;;;3.70;47.80
61345;BME280;47216;42.656;23.232;2024-01-30T12:54:17;95626.19;;;3.67;47.74
61345;BME280;47216;42.656;23.232;2024-01-30T12:56:46;95630.25;;;3.77;48.45
61345;BME280;47216;42.656;23.232;2024-01-30T12:59:12;95624.44;;;3.75;47.51
61345;BME280;47216;42.656;23.232;2024-01-30T13:01:39;95614.75;;;3.69;47.19
61345;BME280;47216;42.656;23.232;2024-01-30T13:04:10;95611.03;;;3.80;46.80
61345;BME280;47216;42.656;23.232;2024-01-30T13:06:47;95615.41;;;3.79;48.12
61345;BME280;47216;42.656;23.232;2024-01-30T13:09:14;95616.03;;;3.73;47.14
61345;BME280;47216;42.656;23.232;2024-01-30T13:11:41;95614.44;;;3.72;48.14
61345;BME280;47216;42.656;23.232;2024-01-30T13:14:09;95608.31;;;3.73;47.36
61345;BME280;47216;42.656;23.232;2024-01-30T13:16:36;95607.66;;;3.71;47.72
61345;BME280;47216;42.656;23.232;2024-01-30T13:19:12;95605.25;;;3.70;47.67
61345;BME280;47216;42.656;23.232;2024-01-30T13:21:57;95613.78;;;3.78;48.17
61345;BME280;47216;42.656;23.232;2024-01-30T13:24:40;95603.00;;;3.75;48.12
61345;BME280;47216;42.656;23.232;2024-01-30T13:27:15;95603.47;;;3.62;47.79
61345;BME280;47216;42.656;23.232;2024-01-30T13:30:10;95606.34;;;3.67;47.36
61345;BME280;47216;42.656;23.232;2024-01-30T13:32:44;95612.50;;;3.74;48.98
61345;BME280;47216;42.656;23.232;2024-01-30T13:35:27;95607.97;;;3.76;49.67
61345;BME280;47216;42.656;23.232;2024-01-30T13:38:12;95599.25;;;3.86;47.06
61345;BME280;47216;42.656;23.232;2024-01-30T13:40:53;95611.84;;;3.89;47.49
61345;BME280;47216;42.656;23.232;2024-01-30T13:43:35;95608.31;;;3.82;47.51
61345;BME280;47216;42.656;23.232;2024-01-30T13:46:16;95614.75;;;3.69;48.08
61345;BME280;47216;42.656;23.232;2024-01-30T13:49:07;95612.81;;;3.71;47.49
61345;BME280;47216;42.656;23.232;2024-01-30T13:51:48;95608.13;;;3.67;47.86
61345;BME280;47216;42.656;23.232;2024-01-30T13:54:22;95615.69;;;3.60;47.52
61345;BME280;47216;42.656;23.232;2024-01-30T13:57:00;95620.56;;;3.63;48.38
61345;BME280;47216;42.656;23.232;2024-01-30T13:59:45;95620.84;;;3.44;48.73
61345;BME280;47216;42.656;23.232;2024-01-30T14:02:37;95615.38;;;3.39;49.14
61345;BME280;47216;42.656;23.232;2024-01-30T14:05:12;95623.41;;;3.44;48.95
61345;BME280;47216;42.656;23.232;2024-01-30T14:07:59;95613.09;;;3.35;48.88
61345;BME280;47216;42.656;23.232;2024-01-30T14:10:37;95621.53;;;3.54;47.79
61345;BME280;47216;42.656;23.232;2024-01-30T14:13:20;95609.09;;;3.49;48.20
61345;BME280;47216;42.656;23.232;2024-01-30T14:15:53;95606.03;;;3.46;48.33
61345;BME280;47216;42.656;23.232;2024-01-30T14:18:36;95610.38;;;3.53;48.67
61345;BME280;47216;42.656;23.232;2024-01-30T14:21:16;95605.53;;;3.50;48.56
61345;BME280;47216;42.656;23.232;2024-01-30T14:24:07;95605.06;;;3.55;48.27
61345;BME280;47216;42.656;23.232;2024-01-30T14:26:48;95613.13;;;3.52;48.70